sensor_id;sensor_type;location;lat;lon;timestamp;P1;durP1;ratioP1;P2;durP2;ratioP2
75810;SDS011;64449;50.016;19.954;2023-09-18T00:02:06;5.60;;;3.80;;
75810;SDS011;64449;50.016;19.954;2023-09-18T00:04:31;5.30;;;3.70;;
75810;SDS011;64449;50.016;19.954;2023-09-18T00:06:57;6.50;;;3.80;;
75810;SDS011;64449;50.016;19.954;2023-09-18T00:09:22;7.50;;;4.10;;
75810;SDS011;64449;50.016;19.954;2023-09-18T00:11:48;6.00;;;4.30;;
75810;SDS011;64449;50.016;19.954;2023-09-18T00:14:13;5.70;;;4.10;;
75810;SDS011;64449;50.016;19.954;2023-09-18T00:16:39;6.50;;;3.90;;
75810;SDS011;64449;50.016;19.954;2023-09-18T00:19:04;6.20;;;4.70;;
75810;SDS011;64449;50.016;19.954;2023-09-18T00:21:32;7.20;;;4.20;;
75810;SDS011;64449;50.016;19.954;2023-09-18T00:23:58;8.40;;;4.20;;
75810;SDS011;64449;50.016;19.954;2023-09-18T00:26:24;8.10;;;4.50;;
75810;SDS011;64449;50.016;19.954;2023-09-18T00:28:50;7.10;;;4.60;;
75810;SDS011;64449;50.016;19.954;2023-09-18T00:31:15;6.20;;;4.70;;
75810;SDS011;64449;50.016;19.954;2023-09-18T00:33:41;7.60;;;4.30;;
75810;SDS011;64449;50.016;19.954;2023-09-18T00:36:06;6.90;;;4.50;;
75810;SDS011;64449;50.016;19.954;2023-09-18T00:38:31;6.70;;;4.50;;
75810;SDS011;64449;50.016;19.954;2023-09-18T00:40:57;10.60;;;4.80;;
75810;SDS011;64449;50.016;19.954;2023-09-18T00:43:22;8.20;;;4.50;;
75810;SDS011;64449;50.016;19.954;2023-09-18T00:45:48;8.20;;;4.40;;
75810;SDS011;64449;50.016;19.954;2023-09-18T00:48:14;6.10;;;4.40;;
75810;SDS011;64449;50.016;19.954;2023-09-18T00:50:41;7.40;;;5.10;;
75810;SDS011;64449;50.016;19.954;2023-09-18T00:53:08;10.60;;;4.80;;
75810;SDS011;64449;50.016;19.954;2023-09-18T00:55:34;8.70;;;5.10;;
75810;SDS011;64449;50.016;19.954;2023-09-18T00:58:02;7.20;;;4.80;;
75810;SDS011;64449;50.016;19.954;2023-09-18T01:00:28;6.90;;;4.00;;
75810;SDS011;64449;50.016;19.954;2023-09-18T01:02:53;7.70;;;5.10;;
75810;SDS011;64449;50.016;19.954;2023-09-18T01:05:19;7.70;;;4.80;;
75810;SDS011;64449;50.016;19.954;2023-09-18T01:07:45;9.80;;;5.60;;
75810;SDS011;64449;50.016;19.954;2023-09-18T01:10:11;7.60;;;4.60;;
75810;SDS011;64449;50.016;19.954;2023-09-18T01:13:14;8.10;;;4.60;;
75810;SDS011;64449;50.016;19.954;2023-09-18T01:15:48;19.60;;;12.60;;
75810;SDS011;64449;50.016;19.954;2023-09-18T01:18:19;22.40;;;14.00;;
75810;SDS011;64449;50.016;19.954;2023-09-18T01:20:45;17.50;;;11.30;;
75810;SDS011;64449;50.016;19.954;2023-09-18T01:23:10;8.60;;;6.00;;
75810;SDS011;64449;50.016;19.954;2023-09-18T01:25:36;15.60;;;10.10;;
75810;SDS011;64449;50.016;19.954;2023-09-18T01:28:02;9.90;;;6.60;;
75810;SDS011;64449;50.016;19.954;2023-09-18T01:30:28;7.80;;;5.00;;
75810;SDS011;64449;50.016;19.954;2023-09-18T01:32:54;8.00;;;5.20;;
75810;SDS011;64449;50.016;19.954;2023-09-18T01:35:22;8.70;;;5.40;;
75810;SDS011;64449;50.016;19.954;2023-09-18T01:37:54;6.90;;;4.90;;
75810;SDS011;64449;50.016;19.954;2023-09-18T01:40:21;7.50;;;5.10;;
75810;SDS011;64449;50.016;19.954;2023-09-18T01:42:48;7.40;;;5.00;;
75810;SDS011;64449;50.016;19.954;2023-09-18T01:45:13;7.80;;;5.10;;
75810;SDS011;64449;50.016;19.954;2023-09-18T01:47:39;10.80;;;6.20;;
75810;SDS011;64449;50.016;19.954;2023-09-18T01:50:04;8.00;;;4.60;;
75810;SDS011;64449;50.016;19.954;2023-09-18T01:52:30;7.70;;;4.70;;
75810;SDS011;64449;50.016;19.954;2023-09-18T01:54:56;7.40;;;4.80;;
75810;SDS011;64449;50.016;19.954;2023-09-18T01:57:21;8.10;;;5.50;;
75810;SDS011;64449;50.016;19.954;2023-09-18T01:59:47;8.00;;;5.00;;
75810;SDS011;64449;50.016;19.954;2023-09-18T02:02:12;9.10;;;5.00;;
75810;SDS011;64449;50.016;19.954;2023-09-18T02:04:37;7.00;;;5.40;;
75810;SDS011;64449;50.016;19.954;2023-09-18T02:07:03;11.90;;;8.80;;
75810;SDS011;64449;50.016;19.954;2023-09-18T02:09:29;8.10;;;6.30;;
75810;SDS011;64449;50.016;19.954;2023-09-18T02:11:54;7.30;;;5.80;;
75810;SDS011;64449;50.016;19.954;2023-09-18T02:14:19;9.50;;;5.50;;
75810;SDS011;64449;50.016;19.954;2023-09-18T02:16:45;9.70;;;7.10;;
75810;SDS011;64449;50.016;19.954;2023-09-18T02:19:11;7.70;;;6.30;;
75810;SDS011;64449;50.016;19.954;2023-09-18T02:21:38;9.00;;;6.70;;
75810;SDS011;64449;50.016;19.954;2023-09-18T02:24:04;9.60;;;6.10;;
75810;SDS011;64449;50.016;19.954;2023-09-18T02:26:30;8.90;;;6.70;;
75810;SDS011;64449;50.016;19.954;2023-09-18T02:28:58;7.90;;;5.90;;
75810;SDS011;64449;50.016;19.954;2023-09-18T02:31:24;8.40;;;6.90;;
75810;SDS011;64449;50.016;19.954;2023-09-18T02:33:50;10.40;;;6.60;;
75810;SDS011;64449;50.016;19.954;2023-09-18T02:36:15;12.30;;;8.10;;
75810;SDS011;64449;50.016;19.954;2023-09-18T02:38:41;11.30;;;7.90;;
75810;SDS011;64449;50.016;19.954;2023-09-18T02:41:06;13.40;;;7.90;;
75810;SDS011;64449;50.016;19.954;2023-09-18T02:43:32;10.90;;;7.10;;
75810;SDS011;64449;50.016;19.954;2023-09-18T02:45:57;12.10;;;7.10;;
75810;SDS011;64449;50.016;19.954;2023-09-18T02:48:23;10.60;;;6.30;;
75810;SDS011;64449;50.016;19.954;2023-09-18T02:50:48;9.20;;;6.00;;
75810;SDS011;64449;50.016;19.954;2023-09-18T02:53:18;16.20;;;8.10;;
75810;SDS011;64449;50.016;19.954;2023-09-18T02:55:46;19.50;;;12.40;;
75810;SDS011;64449;50.016;19.954;2023-09-18T02:58:16;29.50;;;19.10;;
75810;SDS011;64449;50.016;19.954;2023-09-18T03:00:41;20.80;;;12.40;;
75810;SDS011;64449;50.016;19.954;2023-09-18T03:03:10;22.90;;;13.90;;
75810;SDS011;64449;50.016;19.954;2023-09-18T03:05:36;16.30;;;9.30;;
75810;SDS011;64449;50.016;19.954;2023-09-18T03:08:03;14.10;;;9.50;;
75810;SDS011;64449;50.016;19.954;2023-09-18T03:10:35;12.50;;;9.30;;
75810;SDS011;64449;50.016;19.954;2023-09-18T03:13:01;12.90;;;8.80;;
75810;SDS011;64449;50.016;19.954;2023-09-18T03:15:28;14.20;;;8.30;;
75810;SDS011;64449;50.016;19.954;2023-09-18T03:17:53;14.10;;;9.00;;
75810;SDS011;64449;50.016;19.954;2023-09-18T03:20:21;16.70;;;9.10;;
75810;SDS011;64449;50.016;19.954;2023-09-18T03:22:48;14.60;;;9.10;;
75810;SDS011;64449;50.016;19.954;2023-09-18T03:25:14;12.80;;;8.40;;
75810;SDS011;64449;50.016;19.954;2023-09-18T03:27:39;14.60;;;8.50;;
75810;SDS011;64449;50.016;19.954;2023-09-18T03:30:05;13.40;;;8.30;;
75810;SDS011;64449;50.016;19.954;2023-09-18T03:32:31;16.50;;;9.00;;
75810;SDS011;64449;50.016;19.954;2023-09-18T03:34:57;12.10;;;8.20;;
75810;SDS011;64449;50.016;19.954;2023-09-18T03:37:23;13.90;;;8.00;;
75810;SDS011;64449;50.016;19.954;2023-09-18T03:39:48;14.20;;;9.10;;
75810;SDS011;64449;50.016;19.954;2023-09-18T03:42:13;14.30;;;8.50;;
75810;SDS011;64449;50.016;19.954;2023-09-18T03:44:39;13.10;;;9.50;;
75810;SDS011;64449;50.016;19.954;2023-09-18T03:47:04;16.00;;;12.20;;
75810;SDS011;64449;50.016;19.954;2023-09-18T03:49:30;35.00;;;22.40;;
75810;SDS011;64449;50.016;19.954;2023-09-18T03:51:55;19.20;;;12.40;;
75810;SDS011;64449;50.016;19.954;2023-09-18T03:54:21;23.20;;;13.30;;
75810;SDS011;64449;50.016;19.954;2023-09-18T03:56:46;17.30;;;11.40;;
75810;SDS011;64449;50.016;19.954;2023-09-18T03:59:12;11.50;;;9.10;;
75810;SDS011;64449;50.016;19.954;2023-09-18T04:01:38;13.50;;;9.80;;
75810;SDS011;64449;50.016;19.954;2023-09-18T04:04:03;14.10;;;9.40;;
75810;SDS011;64449;50.016;19.954;2023-09-18T04:06:40;13.10;;;7.90;;
75810;SDS011;64449;50.016;19.954;2023-09-18T04:09:07;13.50;;;8.20;;
75810;SDS011;64449;50.016;19.954;2023-09-18T04:11:32;13.40;;;8.00;;
75810;SDS011;64449;50.016;19.954;2023-09-18T04:13:58;11.60;;;7.60;;
75810;SDS011;64449;50.016;19.954;2023-09-18T04:16:25;11.40;;;8.10;;
75810;SDS011;64449;50.016;19.954;2023-09-18T04:18:52;13.60;;;9.40;;
75810;SDS011;64449;50.016;19.954;2023-09-18T04:21:18;13.80;;;10.50;;
75810;SDS011;64449;50.016;19.954;2023-09-18T04:23:44;16.20;;;10.30;;
75810;SDS011;64449;50.016;19.954;2023-09-18T04:26:09;15.00;;;11.20;;
75810;SDS011;64449;50.016;19.954;2023-09-18T04:28:35;17.10;;;11.30;;
75810;SDS011;64449;50.016;19.954;2023-09-18T04:31:01;15.30;;;10.80;;
75810;SDS011;64449;50.016;19.954;2023-09-18T04:33:26;20.70;;;14.30;;
75810;SDS011;64449;50.016;19.954;2023-09-18T04:35:53;21.60;;;13.50;;
75810;SDS011;64449;50.016;19.954;2023-09-18T04:38:19;25.90;;;15.00;;
75810;SDS011;64449;50.016;19.954;2023-09-18T04:40:44;15.80;;;9.60;;
75810;SDS011;64449;50.016;19.954;2023-09-18T04:43:10;13.50;;;8.60;;
75810;SDS011;64449;50.016;19.954;2023-09-18T04:45:36;16.20;;;10.60;;
75810;SDS011;64449;50.016;19.954;2023-09-18T04:48:02;15.30;;;9.40;;
75810;SDS011;64449;50.016;19.954;2023-09-18T04:50:28;15.40;;;10.40;;
75810;SDS011;64449;50.016;19.954;2023-09-18T04:52:53;14.40;;;9.80;;
75810;SDS011;64449;50.016;19.954;2023-09-18T04:55:21;13.40;;;8.60;;
75810;SDS011;64449;50.016;19.954;2023-09-18T04:57:46;12.10;;;7.40;;
75810;SDS011;64449;50.016;19.954;2023-09-18T05:00:12;16.60;;;8.80;;
75810;SDS011;64449;50.016;19.954;2023-09-18T05:02:39;12.70;;;8.10;;
75810;SDS011;64449;50.016;19.954;2023-09-18T05:05:05;15.10;;;8.30;;
75810;SDS011;64449;50.016;19.954;2023-09-18T05:07:30;13.30;;;8.90;;
75810;SDS011;64449;50.016;19.954;2023-09-18T05:09:57;14.10;;;9.80;;
75810;SDS011;64449;50.016;19.954;2023-09-18T05:12:23;14.40;;;10.60;;
75810;SDS011;64449;50.016;19.954;2023-09-18T05:14:48;20.70;;;12.50;;
75810;SDS011;64449;50.016;19.954;2023-09-18T05:17:14;20.70;;;14.60;;
75810;SDS011;64449;50.016;19.954;2023-09-18T05:19:41;40.90;;;29.40;;
75810;SDS011;64449;50.016;19.954;2023-09-18T05:22:08;20.50;;;14.90;;
75810;SDS011;64449;50.016;19.954;2023-09-18T05:24:35;13.70;;;10.40;;
75810;SDS011;64449;50.016;19.954;2023-09-18T05:27:01;15.70;;;11.60;;
75810;SDS011;64449;50.016;19.954;2023-09-18T05:29:27;14.40;;;9.60;;
75810;SDS011;64449;50.016;19.954;2023-09-18T05:31:53;16.20;;;10.90;;
75810;SDS011;64449;50.016;19.954;2023-09-18T05:34:18;14.40;;;10.60;;
75810;SDS011;64449;50.016;19.954;2023-09-18T05:36:44;20.50;;;11.30;;
75810;SDS011;64449;50.016;19.954;2023-09-18T05:39:09;18.60;;;9.90;;
75810;SDS011;64449;50.016;19.954;2023-09-18T05:41:37;16.10;;;11.40;;
75810;SDS011;64449;50.016;19.954;2023-09-18T05:44:03;15.70;;;9.70;;
75810;SDS011;64449;50.016;19.954;2023-09-18T05:46:31;18.50;;;12.10;;
75810;SDS011;64449;50.016;19.954;2023-09-18T05:48:57;20.50;;;11.50;;
75810;SDS011;64449;50.016;19.954;2023-09-18T05:51:23;18.40;;;12.10;;
75810;SDS011;64449;50.016;19.954;2023-09-18T05:53:48;10.50;;;7.90;;
75810;SDS011;64449;50.016;19.954;2023-09-18T05:56:14;15.40;;;11.20;;
75810;SDS011;64449;50.016;19.954;2023-09-18T05:58:42;17.30;;;13.90;;
75810;SDS011;64449;50.016;19.954;2023-09-18T06:01:07;23.90;;;15.10;;
75810;SDS011;64449;50.016;19.954;2023-09-18T06:03:33;16.00;;;11.40;;
75810;SDS011;64449;50.016;19.954;2023-09-18T06:06:01;16.90;;;11.80;;
75810;SDS011;64449;50.016;19.954;2023-09-18T06:08:28;23.10;;;12.80;;
75810;SDS011;64449;50.016;19.954;2023-09-18T06:10:54;13.80;;;9.40;;
75810;SDS011;64449;50.016;19.954;2023-09-18T06:13:20;12.10;;;8.70;;
75810;SDS011;64449;50.016;19.954;2023-09-18T06:15:46;12.00;;;8.30;;
75810;SDS011;64449;50.016;19.954;2023-09-18T06:18:11;12.90;;;6.60;;
75810;SDS011;64449;50.016;19.954;2023-09-18T06:20:38;13.50;;;7.50;;
75810;SDS011;64449;50.016;19.954;2023-09-18T06:23:04;10.70;;;7.10;;
75810;SDS011;64449;50.016;19.954;2023-09-18T06:25:30;16.10;;;9.40;;
75810;SDS011;64449;50.016;19.954;2023-09-18T06:27:56;13.20;;;7.40;;
75810;SDS011;64449;50.016;19.954;2023-09-18T06:30:22;11.50;;;6.70;;
75810;SDS011;64449;50.016;19.954;2023-09-18T06:32:47;13.60;;;8.00;;
75810;SDS011;64449;50.016;19.954;2023-09-18T06:35:13;12.00;;;7.50;;
75810;SDS011;64449;50.016;19.954;2023-09-18T06:37:38;13.80;;;8.30;;
75810;SDS011;64449;50.016;19.954;2023-09-18T06:40:04;11.20;;;8.00;;
75810;SDS011;64449;50.016;19.954;2023-09-18T06:42:30;19.50;;;8.40;;
75810;SDS011;64449;50.016;19.954;2023-09-18T06:44:56;10.90;;;7.50;;
75810;SDS011;64449;50.016;19.954;2023-09-18T06:47:22;11.00;;;7.30;;
75810;SDS011;64449;50.016;19.954;2023-09-18T06:49:49;13.30;;;6.70;;
75810;SDS011;64449;50.016;19.954;2023-09-18T06:52:15;10.50;;;6.00;;
75810;SDS011;64449;50.016;19.954;2023-09-18T06:54:41;11.30;;;5.80;;
75810;SDS011;64449;50.016;19.954;2023-09-18T06:57:09;12.80;;;7.00;;
75810;SDS011;64449;50.016;19.954;2023-09-18T06:59:34;13.10;;;7.00;;
75810;SDS011;64449;50.016;19.954;2023-09-18T07:02:00;11.20;;;6.70;;
75810;SDS011;64449;50.016;19.954;2023-09-18T07:04:27;14.70;;;8.10;;
75810;SDS011;64449;50.016;19.954;2023-09-18T07:06:52;12.70;;;7.70;;
75810;SDS011;64449;50.016;19.954;2023-09-18T07:09:19;13.60;;;7.10;;
75810;SDS011;64449;50.016;19.954;2023-09-18T07:11:48;18.00;;;9.10;;
75810;SDS011;64449;50.016;19.954;2023-09-18T07:14:14;14.50;;;8.20;;
75810;SDS011;64449;50.016;19.954;2023-09-18T07:16:39;15.10;;;9.20;;
75810;SDS011;64449;50.016;19.954;2023-09-18T07:19:05;13.00;;;9.10;;
75810;SDS011;64449;50.016;19.954;2023-09-18T07:21:30;12.60;;;8.20;;
75810;SDS011;64449;50.016;19.954;2023-09-18T07:23:56;16.80;;;9.90;;
75810;SDS011;64449;50.016;19.954;2023-09-18T07:26:21;13.10;;;7.90;;
75810;SDS011;64449;50.016;19.954;2023-09-18T07:28:47;15.00;;;9.10;;
75810;SDS011;64449;50.016;19.954;2023-09-18T07:31:13;22.20;;;9.00;;
75810;SDS011;64449;50.016;19.954;2023-09-18T07:33:39;13.60;;;8.80;;
75810;SDS011;64449;50.016;19.954;2023-09-18T07:36:05;11.70;;;8.50;;
75810;SDS011;64449;50.016;19.954;2023-09-18T07:38:31;10.80;;;7.80;;
75810;SDS011;64449;50.016;19.954;2023-09-18T07:40:56;14.30;;;7.80;;
75810;SDS011;64449;50.016;19.954;2023-09-18T07:43:23;9.50;;;6.90;;
75810;SDS011;64449;50.016;19.954;2023-09-18T07:45:50;10.40;;;7.30;;
75810;SDS011;64449;50.016;19.954;2023-09-18T07:48:15;12.40;;;7.50;;
75810;SDS011;64449;50.016;19.954;2023-09-18T07:50:45;11.30;;;7.30;;
75810;SDS011;64449;50.016;19.954;2023-09-18T07:53:11;10.10;;;6.90;;
75810;SDS011;64449;50.016;19.954;2023-09-18T07:55:36;12.20;;;7.00;;
75810;SDS011;64449;50.016;19.954;2023-09-18T07:58:03;14.90;;;7.20;;
75810;SDS011;64449;50.016;19.954;2023-09-18T08:00:29;15.30;;;7.70;;
75810;SDS011;64449;50.016;19.954;2023-09-18T08:02:55;15.40;;;8.50;;
75810;SDS011;64449;50.016;19.954;2023-09-18T08:05:25;13.80;;;8.90;;
75810;SDS011;64449;50.016;19.954;2023-09-18T08:07:53;16.80;;;9.60;;
75810;SDS011;64449;50.016;19.954;2023-09-18T08:10:22;10.00;;;6.80;;
75810;SDS011;64449;50.016;19.954;2023-09-18T08:12:51;11.80;;;6.90;;
75810;SDS011;64449;50.016;19.954;2023-09-18T08:15:18;11.10;;;6.70;;
75810;SDS011;64449;50.016;19.954;2023-09-18T08:17:45;8.10;;;6.00;;
75810;SDS011;64449;50.016;19.954;2023-09-18T08:20:11;10.10;;;7.90;;
75810;SDS011;64449;50.016;19.954;2023-09-18T08:22:38;9.00;;;7.20;;
75810;SDS011;64449;50.016;19.954;2023-09-18T08:25:04;9.70;;;7.40;;
75810;SDS011;64449;50.016;19.954;2023-09-18T08:27:33;9.30;;;6.30;;
75810;SDS011;64449;50.016;19.954;2023-09-18T08:29:58;8.10;;;6.50;;
75810;SDS011;64449;50.016;19.954;2023-09-18T08:32:24;11.30;;;8.40;;
75810;SDS011;64449;50.016;19.954;2023-09-18T08:34:49;10.00;;;7.70;;
75810;SDS011;64449;50.016;19.954;2023-09-18T08:37:14;9.50;;;7.70;;
75810;SDS011;64449;50.016;19.954;2023-09-18T08:39:40;8.20;;;6.50;;
75810;SDS011;64449;50.016;19.954;2023-09-18T08:42:07;10.80;;;6.50;;
75810;SDS011;64449;50.016;19.954;2023-09-18T08:44:35;8.40;;;7.00;;
75810;SDS011;64449;50.016;19.954;2023-09-18T08:47:03;10.10;;;6.70;;
75810;SDS011;64449;50.016;19.954;2023-09-18T08:49:30;8.60;;;7.20;;
75810;SDS011;64449;50.016;19.954;2023-09-18T08:51:56;8.20;;;6.40;;
75810;SDS011;64449;50.016;19.954;2023-09-18T08:54:23;9.30;;;6.30;;
75810;SDS011;64449;50.016;19.954;2023-09-18T08:56:50;8.00;;;6.60;;
75810;SDS011;64449;50.016;19.954;2023-09-18T08:59:17;7.60;;;6.30;;
75810;SDS011;64449;50.016;19.954;2023-09-18T09:01:45;9.10;;;6.40;;
75810;SDS011;64449;50.016;19.954;2023-09-18T09:04:10;7.50;;;6.00;;
75810;SDS011;64449;50.016;19.954;2023-09-18T09:06:36;6.20;;;5.30;;
75810;SDS011;64449;50.016;19.954;2023-09-18T09:09:02;8.00;;;6.30;;
75810;SDS011;64449;50.016;19.954;2023-09-18T09:11:27;8.50;;;6.70;;
75810;SDS011;64449;50.016;19.954;2023-09-18T09:14:12;8.40;;;6.70;;
75810;SDS011;64449;50.016;19.954;2023-09-18T09:16:47;7.60;;;6.00;;
75810;SDS011;64449;50.016;19.954;2023-09-18T09:19:15;8.30;;;6.00;;
75810;SDS011;64449;50.016;19.954;2023-09-18T09:21:44;7.20;;;6.20;;
75810;SDS011;64449;50.016;19.954;2023-09-18T09:24:11;6.90;;;5.80;;
75810;SDS011;64449;50.016;19.954;2023-09-18T09:26:39;7.80;;;6.50;;
75810;SDS011;64449;50.016;19.954;2023-09-18T09:29:18;9.00;;;6.10;;
75810;SDS011;64449;50.016;19.954;2023-09-18T09:31:46;7.70;;;5.80;;
75810;SDS011;64449;50.016;19.954;2023-09-18T09:34:12;6.90;;;5.70;;
75810;SDS011;64449;50.016;19.954;2023-09-18T09:36:55;7.90;;;6.30;;
75810;SDS011;64449;50.016;19.954;2023-09-18T09:39:21;7.60;;;6.20;;
75810;SDS011;64449;50.016;19.954;2023-09-18T09:41:50;7.50;;;6.50;;
75810;SDS011;64449;50.016;19.954;2023-09-18T09:44:16;8.80;;;5.90;;
75810;SDS011;64449;50.016;19.954;2023-09-18T09:46:46;7.00;;;6.10;;
75810;SDS011;64449;50.016;19.954;2023-09-18T09:49:16;7.90;;;6.30;;
75810;SDS011;64449;50.016;19.954;2023-09-18T09:51:42;7.70;;;5.60;;
75810;SDS011;64449;50.016;19.954;2023-09-18T09:54:09;7.40;;;6.40;;
75810;SDS011;64449;50.016;19.954;2023-09-18T09:56:48;7.70;;;5.60;;
75810;SDS011;64449;50.016;19.954;2023-09-18T09:59:18;6.70;;;6.00;;
75810;SDS011;64449;50.016;19.954;2023-09-18T10:01:47;7.90;;;6.10;;
75810;SDS011;64449;50.016;19.954;2023-09-18T10:04:17;7.60;;;6.10;;
75810;SDS011;64449;50.016;19.954;2023-09-18T10:06:47;7.20;;;6.20;;
75810;SDS011;64449;50.016;19.954;2023-09-18T10:09:17;8.90;;;7.20;;
75810;SDS011;64449;50.016;19.954;2023-09-18T10:11:46;7.40;;;6.10;;
75810;SDS011;64449;50.016;19.954;2023-09-18T10:14:16;8.50;;;6.10;;
75810;SDS011;64449;50.016;19.954;2023-09-18T10:16:45;9.10;;;7.40;;
75810;SDS011;64449;50.016;19.954;2023-09-18T10:19:17;7.90;;;6.40;;
75810;SDS011;64449;50.016;19.954;2023-09-18T10:22:13;8.50;;;6.50;;
75810;SDS011;64449;50.016;19.954;2023-09-18T10:24:45;6.90;;;5.50;;
75810;SDS011;64449;50.016;19.954;2023-09-18T10:27:14;7.50;;;5.20;;
75810;SDS011;64449;50.016;19.954;2023-09-18T10:29:43;6.20;;;5.40;;
75810;SDS011;64449;50.016;19.954;2023-09-18T10:32:10;7.80;;;5.80;;
75810;SDS011;64449;50.016;19.954;2023-09-18T10:34:36;6.80;;;6.00;;
75810;SDS011;64449;50.016;19.954;2023-09-18T10:37:02;7.70;;;6.50;;
75810;SDS011;64449;50.016;19.954;2023-09-18T10:39:35;7.90;;;5.00;;
75810;SDS011;64449;50.016;19.954;2023-09-18T10:42:04;6.30;;;5.30;;
75810;SDS011;64449;50.016;19.954;2023-09-18T10:44:32;7.10;;;6.00;;
75810;SDS011;64449;50.016;19.954;2023-09-18T10:46:58;6.30;;;5.30;;
75810;SDS011;64449;50.016;19.954;2023-09-18T10:49:25;5.80;;;5.20;;
75810;SDS011;64449;50.016;19.954;2023-09-18T10:51:54;6.40;;;5.50;;
75810;SDS011;64449;50.016;19.954;2023-09-18T10:54:21;6.00;;;5.40;;
75810;SDS011;64449;50.016;19.954;2023-09-18T10:56:48;7.90;;;5.10;;
75810;SDS011;64449;50.016;19.954;2023-09-18T10:59:15;5.70;;;5.10;;
75810;SDS011;64449;50.016;19.954;2023-09-18T11:01:42;6.00;;;5.40;;
75810;SDS011;64449;50.016;19.954;2023-09-18T11:04:08;9.00;;;6.70;;
75810;SDS011;64449;50.016;19.954;2023-09-18T11:07:21;6.10;;;5.00;;
75810;SDS011;64449;50.016;19.954;2023-09-18T11:11:51;6.80;;;5.20;;
75810;SDS011;64449;50.016;19.954;2023-09-18T11:14:40;6.70;;;5.10;;
75810;SDS011;64449;50.016;19.954;2023-09-18T11:17:29;7.00;;;4.90;;
75810;SDS011;64449;50.016;19.954;2023-09-18T11:22:34;5.30;;;4.50;;
75810;SDS011;64449;50.016;19.954;2023-09-18T11:28:06;5.90;;;5.20;;
75810;SDS011;64449;50.016;19.954;2023-09-18T11:30:36;5.00;;;4.50;;
75810;SDS011;64449;50.016;19.954;2023-09-18T11:33:03;5.80;;;4.40;;
75810;SDS011;64449;50.016;19.954;2023-09-18T11:35:29;6.00;;;4.30;;
75810;SDS011;64449;50.016;19.954;2023-09-18T11:38:10;6.10;;;5.40;;
75810;SDS011;64449;50.016;19.954;2023-09-18T11:40:37;8.00;;;4.80;;
75810;SDS011;64449;50.016;19.954;2023-09-18T11:43:22;5.80;;;4.80;;
75810;SDS011;64449;50.016;19.954;2023-09-18T11:45:55;5.40;;;4.90;;
75810;SDS011;64449;50.016;19.954;2023-09-18T11:48:25;5.30;;;4.60;;
75810;SDS011;64449;50.016;19.954;2023-09-18T11:50:56;7.00;;;4.60;;
75810;SDS011;64449;50.016;19.954;2023-09-18T11:53:23;7.40;;;5.10;;
75810;SDS011;64449;50.016;19.954;2023-09-18T11:55:49;8.70;;;4.70;;
75810;SDS011;64449;50.016;19.954;2023-09-18T11:58:15;5.50;;;4.00;;
75810;SDS011;64449;50.016;19.954;2023-09-18T12:00:41;5.30;;;4.50;;
75810;SDS011;64449;50.016;19.954;2023-09-18T12:03:19;5.50;;;4.60;;
75810;SDS011;64449;50.016;19.954;2023-09-18T12:05:55;5.30;;;4.30;;
75810;SDS011;64449;50.016;19.954;2023-09-18T12:08:24;6.40;;;5.00;;
75810;SDS011;64449;50.016;19.954;2023-09-18T12:10:51;8.40;;;4.70;;
75810;SDS011;64449;50.016;19.954;2023-09-18T12:13:18;5.80;;;4.30;;
75810;SDS011;64449;50.016;19.954;2023-09-18T12:15:44;5.50;;;4.50;;
75810;SDS011;64449;50.016;19.954;2023-09-18T12:18:10;5.50;;;4.50;;
75810;SDS011;64449;50.016;19.954;2023-09-18T12:20:48;5.90;;;4.50;;
75810;SDS011;64449;50.016;19.954;2023-09-18T12:23:14;6.10;;;4.80;;
75810;SDS011;64449;50.016;19.954;2023-09-18T12:25:41;5.60;;;4.50;;
75810;SDS011;64449;50.016;19.954;2023-09-18T12:28:07;5.60;;;4.50;;
75810;SDS011;64449;50.016;19.954;2023-09-18T12:30:33;5.20;;;4.20;;
75810;SDS011;64449;50.016;19.954;2023-09-18T12:32:59;6.10;;;4.60;;
75810;SDS011;64449;50.016;19.954;2023-09-18T12:35:30;5.50;;;4.50;;
75810;SDS011;64449;50.016;19.954;2023-09-18T12:37:59;6.00;;;4.60;;
75810;SDS011;64449;50.016;19.954;2023-09-18T12:40:26;6.10;;;4.60;;
75810;SDS011;64449;50.016;19.954;2023-09-18T12:42:56;7.30;;;4.60;;
75810;SDS011;64449;50.016;19.954;2023-09-18T12:45:24;4.80;;;4.00;;
75810;SDS011;64449;50.016;19.954;2023-09-18T12:47:50;6.90;;;4.60;;
75810;SDS011;64449;50.016;19.954;2023-09-18T12:50:16;5.10;;;4.10;;
75810;SDS011;64449;50.016;19.954;2023-09-18T12:52:42;5.30;;;4.20;;
75810;SDS011;64449;50.016;19.954;2023-09-18T12:55:08;7.00;;;3.90;;
75810;SDS011;64449;50.016;19.954;2023-09-18T12:57:34;6.00;;;4.50;;
75810;SDS011;64449;50.016;19.954;2023-09-18T13:00:07;5.20;;;4.10;;
75810;SDS011;64449;50.016;19.954;2023-09-18T13:02:36;4.50;;;3.80;;
75810;SDS011;64449;50.016;19.954;2023-09-18T13:05:03;5.20;;;4.50;;
75810;SDS011;64449;50.016;19.954;2023-09-18T13:07:28;4.80;;;3.90;;
75810;SDS011;64449;50.016;19.954;2023-09-18T13:10:12;5.60;;;4.80;;
75810;SDS011;64449;50.016;19.954;2023-09-18T13:12:45;5.90;;;4.20;;
75810;SDS011;64449;50.016;19.954;2023-09-18T13:15:12;5.90;;;4.10;;
75810;SDS011;64449;50.016;19.954;2023-09-18T13:17:42;4.70;;;4.00;;
75810;SDS011;64449;50.016;19.954;2023-09-18T13:20:21;5.20;;;4.40;;
75810;SDS011;64449;50.016;19.954;2023-09-18T13:22:53;5.20;;;3.90;;
75810;SDS011;64449;50.016;19.954;2023-09-18T13:25:23;5.50;;;4.30;;
75810;SDS011;64449;50.016;19.954;2023-09-18T13:27:50;5.00;;;4.40;;
75810;SDS011;64449;50.016;19.954;2023-09-18T13:30:16;5.00;;;3.90;;
75810;SDS011;64449;50.016;19.954;2023-09-18T13:32:43;4.30;;;3.80;;
75810;SDS011;64449;50.016;19.954;2023-09-18T13:35:09;4.50;;;4.00;;
75810;SDS011;64449;50.016;19.954;2023-09-18T13:37:37;4.80;;;3.90;;
75810;SDS011;64449;50.016;19.954;2023-09-18T13:40:04;5.70;;;3.40;;
75810;SDS011;64449;50.016;19.954;2023-09-18T13:42:33;4.50;;;3.80;;
75810;SDS011;64449;50.016;19.954;2023-09-18T13:44:59;6.00;;;3.70;;
75810;SDS011;64449;50.016;19.954;2023-09-18T13:47:34;4.50;;;3.50;;
75810;SDS011;64449;50.016;19.954;2023-09-18T13:50:00;3.80;;;2.80;;
75810;SDS011;64449;50.016;19.954;2023-09-18T13:52:31;5.40;;;3.40;;
75810;SDS011;64449;50.016;19.954;2023-09-18T13:54:57;4.40;;;3.50;;
75810;SDS011;64449;50.016;19.954;2023-09-18T13:57:23;4.30;;;3.40;;
75810;SDS011;64449;50.016;19.954;2023-09-18T13:59:49;4.20;;;3.40;;
75810;SDS011;64449;50.016;19.954;2023-09-18T14:02:15;4.30;;;3.40;;
75810;SDS011;64449;50.016;19.954;2023-09-18T14:04:41;4.60;;;3.50;;
75810;SDS011;64449;50.016;19.954;2023-09-18T14:07:07;4.70;;;3.90;;
75810;SDS011;64449;50.016;19.954;2023-09-18T14:09:33;4.50;;;3.40;;
75810;SDS011;64449;50.016;19.954;2023-09-18T14:11:59;4.60;;;3.30;;
75810;SDS011;64449;50.016;19.954;2023-09-18T14:14:25;6.10;;;3.50;;
75810;SDS011;64449;50.016;19.954;2023-09-18T14:16:51;4.30;;;3.40;;
75810;SDS011;64449;50.016;19.954;2023-09-18T14:19:16;4.10;;;3.20;;
75810;SDS011;64449;50.016;19.954;2023-09-18T14:21:42;4.70;;;3.80;;
75810;SDS011;64449;50.016;19.954;2023-09-18T14:24:08;4.10;;;3.10;;
75810;SDS011;64449;50.016;19.954;2023-09-18T14:26:34;4.90;;;3.20;;
75810;SDS011;64449;50.016;19.954;2023-09-18T14:29:05;4.20;;;3.10;;
75810;SDS011;64449;50.016;19.954;2023-09-18T14:31:32;6.20;;;3.00;;
75810;SDS011;64449;50.016;19.954;2023-09-18T14:33:57;4.20;;;3.20;;
75810;SDS011;64449;50.016;19.954;2023-09-18T14:36:24;4.90;;;3.20;;
75810;SDS011;64449;50.016;19.954;2023-09-18T14:38:49;4.90;;;3.70;;